createdAt,value
2019-04-06T00:01:39.005Z,9.78
2019-04-06T00:04:09.614Z,9.85
2019-04-06T00:06:40.411Z,9.55
2019-04-06T00:09:11.374Z,9.58
2019-04-06T00:11:41.922Z,9.18
2019-04-06T00:14:12.399Z,9.70
2019-04-06T00:16:43.184Z,9.78
2019-04-06T00:19:13.969Z,9.45
2019-04-06T00:21:44.544Z,9.43
2019-04-06T00:24:15.118Z,9.03
2019-04-06T00:26:45.894Z,8.48
2019-04-06T00:29:16.694Z,9.40
2019-04-06T00:31:54.747Z,9.10
2019-04-06T00:34:25.579Z,9.08
2019-04-06T00:36:56.330Z,9.63
2019-04-06T00:39:27.099Z,8.78
2019-04-06T00:41:57.753Z,9.13
2019-04-06T00:44:28.311Z,9.98
2019-04-06T00:46:58.845Z,9.13
2019-04-06T00:49:29.593Z,9.35
2019-04-06T00:52:00.352Z,8.35
2019-04-06T00:54:31.080Z,8.90
2019-04-06T00:57:01.860Z,8.70
2019-04-06T00:59:32.656Z,9.40
2019-04-06T01:02:04.164Z,9.10
2019-04-06T01:04:34.712Z,9.10
2019-04-06T01:07:05.484Z,9.10
2019-04-06T01:09:36.374Z,9.08
2019-04-06T01:12:07.046Z,9.15
2019-04-06T01:14:37.659Z,9.00
2019-04-06T01:17:08.489Z,8.73
2019-04-06T01:19:39.013Z,8.65
2019-04-06T01:22:09.533Z,8.75
2019-04-06T01:24:40.206Z,8.15
2019-04-06T01:27:10.963Z,9.08
2019-04-06T01:29:41.648Z,9.10
2019-04-06T01:32:12.378Z,8.58
2019-04-06T01:34:43.154Z,9.25
2019-04-06T01:37:13.880Z,9.05
2019-04-06T01:39:44.470Z,9.88
2019-04-06T01:42:15.246Z,9.60
2019-04-06T01:44:45.949Z,8.60
2019-04-06T01:47:16.714Z,9.10
2019-04-06T01:49:47.418Z,8.98
2019-04-06T01:52:18.189Z,8.83
2019-04-06T01:54:48.972Z,9.45
2019-04-06T01:57:19.580Z,9.55
2019-04-06T01:59:50.296Z,9.03
2019-04-06T02:02:25.700Z,9.13
2019-04-06T02:04:56.359Z,9.05
2019-04-06T02:07:26.931Z,8.75
2019-04-06T02:09:57.543Z,8.50
2019-04-06T02:12:28.104Z,8.18
2019-04-06T02:14:58.798Z,8.53
2019-04-06T02:17:29.285Z,8.98
2019-04-06T02:19:59.991Z,8.45
2019-04-06T02:22:30.464Z,8.78
2019-04-06T02:25:01.275Z,9.28
2019-04-06T02:27:31.967Z,8.58
2019-04-06T02:30:39.927Z,9.05
2019-04-06T02:33:32.459Z,9.48
2019-04-06T02:36:24.501Z,9.20
2019-04-06T02:39:13.259Z,9.03
2019-04-06T02:41:51.673Z,8.93
2019-04-06T02:44:22.587Z,9.18
2019-04-06T02:46:53.107Z,9.40
2019-04-06T02:49:23.906Z,8.80
2019-04-06T02:51:54.544Z,9.25
2019-04-06T02:54:25.370Z,8.55
2019-04-06T02:56:56.034Z,8.65
2019-04-06T02:59:26.717Z,8.75
2019-04-06T03:01:57.963Z,8.68
2019-04-06T03:04:28.838Z,8.65
2019-04-06T03:06:59.530Z,8.63
2019-04-06T03:09:30.265Z,8.55
2019-04-06T03:12:00.906Z,8.80
2019-04-06T03:14:31.760Z,8.33
2019-04-06T03:17:02.473Z,9.45
2019-04-06T03:19:33.271Z,8.98
2019-04-06T03:22:03.933Z,8.75
2019-04-06T03:24:34.725Z,9.10
2019-04-06T03:27:05.640Z,8.90
2019-04-06T03:29:36.126Z,9.35
2019-04-06T03:32:06.732Z,9.28
2019-04-06T03:34:37.850Z,9.15
2019-04-06T03:37:08.580Z,8.83
2019-04-06T03:39:39.148Z,8.85
2019-04-06T03:42:11.134Z,9.30
2019-04-06T03:44:42.068Z,9.33
2019-04-06T03:47:13.359Z,9.33
2019-04-06T03:49:46.487Z,8.65
2019-04-06T03:52:17.269Z,8.30
2019-04-06T03:54:48.320Z,8.70
2019-04-06T03:57:19.307Z,8.03
2019-04-06T03:59:50.147Z,8.95
2019-04-06T04:02:20.938Z,8.73
2019-04-06T04:04:52.877Z,8.63
2019-04-06T04:07:25.047Z,9.20
2019-04-06T04:09:56.621Z,9.08
2019-04-06T04:12:29.230Z,8.30
2019-04-06T04:14:59.960Z,8.80
2019-04-06T04:17:31.030Z,9.00
2019-04-06T04:20:02.240Z,9.35
2019-04-06T04:22:35.190Z,9.20
2019-04-06T04:25:05.948Z,8.48
2019-04-06T04:27:40.919Z,9.25
2019-04-06T04:30:14.824Z,9.63
2019-04-06T04:32:44.454Z,9.40
2019-04-06T04:35:18.150Z,9.88
2019-04-06T04:37:47.585Z,9.70
2019-04-06T04:40:19.478Z,9.70
2019-04-06T04:42:50.046Z,10.15
2019-04-06T04:45:20.719Z,9.35
2019-04-06T04:47:51.338Z,9.75
2019-04-06T04:50:22.001Z,9.05
2019-04-06T04:52:52.615Z,9.60
2019-04-06T04:55:23.475Z,9.68
2019-04-06T04:57:54.276Z,9.45
2019-04-06T05:00:24.934Z,10.13
2019-04-06T05:02:55.860Z,9.33
2019-04-06T05:05:26.434Z,9.73
2019-04-06T05:07:57.102Z,9.40
2019-04-06T05:10:27.787Z,9.93
2019-04-06T05:12:58.422Z,9.55
2019-04-06T05:16:09.927Z,9.75
2019-04-06T05:18:41.373Z,9.63
2019-04-06T05:21:11.917Z,10.15
2019-04-06T05:23:42.519Z,9.80
2019-04-06T05:26:13.433Z,9.83
2019-04-06T05:28:44.043Z,9.63
2019-04-06T05:31:14.658Z,9.33
2019-04-06T05:33:45.345Z,9.98
2019-04-06T05:36:16.061Z,9.33
2019-04-06T05:38:46.671Z,9.83
2019-04-06T05:41:17.529Z,9.25
2019-04-06T05:43:48.155Z,9.53
2019-04-06T05:46:19.112Z,9.53
2019-04-06T05:48:51.037Z,9.18
2019-04-06T05:51:21.705Z,9.33
2019-04-06T05:53:53.109Z,9.43
2019-04-06T05:56:23.932Z,9.25
2019-04-06T05:58:54.686Z,9.25
2019-04-06T06:01:25.570Z,9.30
2019-04-06T06:03:56.578Z,9.50
2019-04-06T06:06:32.231Z,8.95
2019-04-06T06:09:04.190Z,8.63
2019-04-06T06:11:36.610Z,9.03
2019-04-06T06:14:07.677Z,9.30
2019-04-06T06:16:38.446Z,9.20
2019-04-06T06:19:09.204Z,9.50
2019-04-06T06:21:40.933Z,10.38
2019-04-06T06:24:12.141Z,9.63
2019-04-06T06:26:43.344Z,9.15
2019-04-06T06:29:15.253Z,9.25
2019-04-06T06:31:46.113Z,9.38
2019-04-06T06:34:16.810Z,14.68
2019-04-06T06:36:47.402Z,14.63
2019-04-06T06:39:18.346Z,14.23
2019-04-06T06:41:49.761Z,13.18
2019-04-06T06:44:20.954Z,19.17
2019-04-06T06:46:55.137Z,18.00
2019-04-06T06:49:26.119Z,19.60
2019-04-06T06:51:57.626Z,21.10
2019-04-06T06:54:29.530Z,23.62
2019-04-06T06:57:02.423Z,23.12
2019-04-06T06:59:33.123Z,23.20
2019-04-06T07:02:03.863Z,23.20
2019-04-06T07:04:34.666Z,22.30
2019-04-06T07:07:05.457Z,22.98
2019-04-06T07:09:35.931Z,22.73
2019-04-06T07:12:06.701Z,23.10
2019-04-06T07:14:37.505Z,23.22
2019-04-06T07:17:08.300Z,23.15
2019-04-06T07:19:38.995Z,22.98
2019-04-06T07:22:09.689Z,21.02
2019-04-06T07:24:40.639Z,21.42
2019-04-06T07:27:11.310Z,20.45
2019-04-06T07:29:56.613Z,19.55
2019-04-06T07:32:33.797Z,20.05
2019-04-06T07:35:04.826Z,19.90
2019-04-06T07:37:35.571Z,19.12
2019-04-06T07:40:07.278Z,18.70
2019-04-06T07:42:37.818Z,20.27
2019-04-06T07:45:08.711Z,20.12
2019-04-06T07:47:39.360Z,22.42
2019-04-06T07:50:11.152Z,22.05
2019-04-06T07:52:42.045Z,22.60
2019-04-06T07:55:12.603Z,23.05
2019-04-06T07:57:43.314Z,23.90
2019-04-06T08:00:14.064Z,21.75
2019-04-06T08:02:44.651Z,22.10
2019-04-06T08:05:15.236Z,22.75
2019-04-06T08:07:46.162Z,22.90
2019-04-06T08:10:16.892Z,22.67
2019-04-06T08:12:47.635Z,23.30
2019-04-06T08:15:18.617Z,22.30
2019-04-06T08:17:49.401Z,20.90
2019-04-06T08:20:20.179Z,20.68
2019-04-06T08:22:51.024Z,21.10
2019-04-06T08:25:21.673Z,20.10
2019-04-06T08:27:52.334Z,20.20
2019-04-06T08:30:23.249Z,20.72
2019-04-06T08:32:54.086Z,19.67
2019-04-06T08:35:26.443Z,20.35
2019-04-06T08:37:57.195Z,20.70
2019-04-06T08:40:30.385Z,19.62
2019-04-06T08:43:01.220Z,20.57
2019-04-06T08:45:32.007Z,20.72
2019-04-06T08:48:02.653Z,20.23
2019-04-06T08:50:33.314Z,20.17
2019-04-06T08:53:03.996Z,19.67
2019-04-06T08:55:34.721Z,20.20
2019-04-06T08:58:05.246Z,20.95
2019-04-06T09:00:35.872Z,19.37
2019-04-06T09:03:06.649Z,19.65
2019-04-06T09:05:37.408Z,18.60
2019-04-06T09:08:08.159Z,19.77
2019-04-06T09:10:38.724Z,19.52
2019-04-06T09:13:09.639Z,19.67
2019-04-06T09:15:40.563Z,19.95
2019-04-06T09:18:11.623Z,19.92
2019-04-06T09:20:42.154Z,19.40
2019-04-06T09:23:13.084Z,19.15
2019-04-06T09:25:43.808Z,19.87
2019-04-06T09:28:14.580Z,19.60
2019-04-06T09:30:45.470Z,18.37
2019-04-06T09:33:15.968Z,18.70
2019-04-06T09:35:46.888Z,18.92
2019-04-06T09:38:20.220Z,17.80
2019-04-06T09:40:51.390Z,17.87
2019-04-06T09:43:22.770Z,18.77
2019-04-06T09:46:10.050Z,18.57
2019-04-06T09:48:48.548Z,18.27
2019-04-06T09:51:37.256Z,18.50
2019-04-06T09:54:21.652Z,17.70
2019-04-06T09:57:00.434Z,18.32
2019-04-06T09:59:43.743Z,17.55
2019-04-06T10:02:26.152Z,16.82
2019-04-06T10:05:21.822Z,17.57
2019-04-06T10:08:17.258Z,17.67
2019-04-06T10:11:03.933Z,17.98
2019-04-06T10:13:43.580Z,18.05
2019-04-06T10:16:32.318Z,18.42
2019-04-06T10:19:22.173Z,18.42
2019-04-06T10:22:10.414Z,17.45
2019-04-06T10:24:54.555Z,17.00
2019-04-06T10:27:56.257Z,17.48
2019-04-06T10:30:44.501Z,17.73
2019-04-06T10:33:37.142Z,16.27
2019-04-06T10:36:27.052Z,15.95
2019-04-06T10:39:16.880Z,15.45
2019-04-06T10:42:00.008Z,16.23
2019-04-06T10:45:05.912Z,16.40
2019-04-06T10:47:50.312Z,16.50
2019-04-06T10:50:59.495Z,16.05
2019-04-06T10:53:46.252Z,16.35
2019-04-06T10:56:34.052Z,16.00
2019-04-06T10:59:22.134Z,15.98
2019-04-06T11:02:28.312Z,16.70
2019-04-06T11:05:18.720Z,16.23
2019-04-06T11:08:01.499Z,17.30
2019-04-06T11:10:45.034Z,16.48
2019-04-06T11:13:36.908Z,16.02
2019-04-06T11:16:26.664Z,15.28
2019-04-06T11:19:28.966Z,15.70
2019-04-06T11:22:07.005Z,15.48
2019-04-06T11:24:55.932Z,15.70
2019-04-06T11:27:51.945Z,16.35
2019-04-06T11:30:29.416Z,15.50
2019-04-06T11:33:22.933Z,15.53
2019-04-06T11:36:11.324Z,16.35
2019-04-06T11:38:59.415Z,15.93
2019-04-06T11:41:41.037Z,15.68
2019-04-06T11:44:29.971Z,16.12
2019-04-06T11:47:22.664Z,16.20
2019-04-06T11:50:12.800Z,16.12
2019-04-06T11:53:02.892Z,208.47
2019-04-06T11:55:45.604Z,178.70
2019-04-06T11:58:22.771Z,113.25
2019-04-06T12:01:12.178Z,93.97
2019-04-06T12:03:54.161Z,92.30
2019-04-06T12:06:31.407Z,150.07
2019-04-06T12:09:36.908Z,299.32
2019-04-06T12:12:32.955Z,153.40
2019-04-06T12:15:29.027Z,325.35
2019-04-06T12:18:20.557Z,195.68
2019-04-06T12:21:10.659Z,150.35
2019-04-06T12:23:56.143Z,120.92
2019-04-06T12:26:38.535Z,103.22
2019-04-06T12:29:32.121Z,90.72
2019-04-06T12:32:21.198Z,88.03
2019-04-06T12:35:16.889Z,83.82
2019-04-06T12:38:06.877Z,79.62
2019-04-06T12:40:45.930Z,74.07
2019-04-06T12:43:42.704Z,73.28
2019-04-06T12:46:23.724Z,67.15
2019-04-06T12:49:13.254Z,62.38
2019-04-06T12:52:08.495Z,56.48
2019-04-06T12:55:02.794Z,54.80
2019-04-06T12:58:00.237Z,52.55
2019-04-06T13:01:07.853Z,49.05
2019-04-06T13:03:58.519Z,45.95
2019-04-06T13:07:00.186Z,44.80
2019-04-06T13:09:58.498Z,42.35
2019-04-06T13:13:01.585Z,40.28
2019-04-06T13:15:50.611Z,39.88
2019-04-06T13:18:46.414Z,38.23
2019-04-06T13:21:34.973Z,36.75
2019-04-06T13:24:10.749Z,35.60
2019-04-06T13:26:48.295Z,35.10
2019-04-06T13:29:36.772Z,33.33
2019-04-06T13:32:30.858Z,33.08
2019-04-06T13:35:19.674Z,31.33
2019-04-06T13:37:58.988Z,30.88
2019-04-06T13:41:05.477Z,30.77
2019-04-06T13:44:01.315Z,28.12
2019-04-06T13:46:51.578Z,28.30
2019-04-06T13:49:50.922Z,28.67
2019-04-06T13:52:35.723Z,27.58
2019-04-06T13:55:25.773Z,26.82
2019-04-06T13:58:16.571Z,26.37
2019-04-06T14:00:54.999Z,24.80
2019-04-06T14:03:42.996Z,23.60
2019-04-06T14:06:31.460Z,23.15
2019-04-06T14:09:15.229Z,24.02
2019-04-06T14:12:08.250Z,21.95
2019-04-06T14:14:48.969Z,20.00
2019-04-06T14:17:45.318Z,20.72
2019-04-06T14:20:33.808Z,19.98
2019-04-06T14:23:38.808Z,19.32
2019-04-06T14:26:22.764Z,18.45
2019-04-06T14:29:15.973Z,18.10
2019-04-06T14:32:09.111Z,19.07
2019-04-06T14:34:59.464Z,19.90
2019-04-06T14:37:49.224Z,22.98
2019-04-06T14:40:44.659Z,20.57
2019-04-06T14:43:34.413Z,19.30
2019-04-06T14:46:26.774Z,18.62
2019-04-06T14:49:28.504Z,18.00
2019-04-06T14:52:07.515Z,17.02
2019-04-06T14:54:46.967Z,17.42
2019-04-06T14:57:36.726Z,16.80
2019-04-06T15:00:39.058Z,17.02
2019-04-06T15:03:31.346Z,16.73
2019-04-06T15:06:36.142Z,16.30
2019-04-06T15:09:20.099Z,16.60
2019-04-06T15:12:15.939Z,16.35
2019-04-06T15:15:00.814Z,15.32
2019-04-06T15:17:37.977Z,15.50
2019-04-06T15:20:26.073Z,14.70
2019-04-06T15:23:14.731Z,15.08
2019-04-06T15:25:57.974Z,15.08
2019-04-06T15:28:53.941Z,15.60
2019-04-06T15:31:43.136Z,15.68
2019-04-06T15:34:26.185Z,15.23
2019-04-06T15:37:15.847Z,15.60
2019-04-06T15:40:11.454Z,15.93
2019-04-06T15:43:10.533Z,15.80
2019-04-06T15:46:03.215Z,14.40
2019-04-06T15:48:51.657Z,14.90
2019-04-06T15:51:31.657Z,14.13
2019-04-06T15:54:23.960Z,14.98
2019-04-06T15:57:08.704Z,13.43
2019-04-06T15:59:48.892Z,14.03
2019-04-06T16:02:53.693Z,13.45
2019-04-06T16:05:46.338Z,12.73
2019-04-06T16:08:27.594Z,14.30
2019-04-06T16:11:20.803Z,13.32
2019-04-06T16:14:05.140Z,13.35
2019-04-06T16:17:00.592Z,13.75
2019-04-06T16:19:59.358Z,13.68
2019-04-06T16:22:58.214Z,12.50
2019-04-06T16:25:53.699Z,13.40
2019-04-06T16:28:35.848Z,13.65
2019-04-06T16:31:32.213Z,13.55
2019-04-06T16:34:26.756Z,13.32
2019-04-06T16:37:15.665Z,13.13
2019-04-06T16:40:21.388Z,13.65
2019-04-06T16:43:20.573Z,12.60
2019-04-06T16:46:14.006Z,14.05
2019-04-06T16:49:01.286Z,13.13
2019-04-06T16:51:42.017Z,13.15
2019-04-06T16:54:30.398Z,12.73
2019-04-06T16:57:12.531Z,13.50
2019-04-06T17:00:18.341Z,13.48
2019-04-06T17:02:49.937Z,13.43
2019-04-06T17:05:35.005Z,13.13
2019-04-06T17:08:24.133Z,12.78
2019-04-06T17:11:12.872Z,12.78
2019-04-06T17:13:52.350Z,13.20
2019-04-06T17:16:42.355Z,12.03
2019-04-06T17:19:33.666Z,12.25
2019-04-06T17:22:24.554Z,12.55
2019-04-06T17:25:10.581Z,12.43
2019-04-06T17:28:00.533Z,12.33
2019-04-06T17:30:48.565Z,12.18
2019-04-06T17:33:41.464Z,11.63
2019-04-06T17:36:22.571Z,12.35
2019-04-06T17:39:27.486Z,11.95
2019-04-06T17:42:06.906Z,11.80
2019-04-06T17:44:56.975Z,12.40
2019-04-06T17:47:46.377Z,12.75
2019-04-06T17:50:36.406Z,11.88
2019-04-06T17:53:35.383Z,12.40
2019-04-06T17:56:23.422Z,12.15
2019-04-06T17:59:24.727Z,12.45
2019-04-06T18:02:23.805Z,12.10
2019-04-06T18:05:01.037Z,11.55
2019-04-06T18:07:44.140Z,11.63
2019-04-06T18:10:40.119Z,11.28
2019-04-06T18:13:20.067Z,11.10
2019-04-06T18:15:51.224Z,11.25
2019-04-06T18:18:22.326Z,11.88
2019-04-06T18:20:53.043Z,11.20
2019-04-06T18:23:23.841Z,11.38
2019-04-06T18:25:54.652Z,11.53
2019-04-06T18:28:26.705Z,11.03
2019-04-06T18:31:22.632Z,11.10
2019-04-06T18:33:53.808Z,11.68
2019-04-06T18:36:27.691Z,11.18
2019-04-06T18:39:02.711Z,11.00
2019-04-06T18:41:34.672Z,10.72
2019-04-06T18:44:06.948Z,10.50
2019-04-06T18:46:40.847Z,10.63
2019-04-06T18:49:13.251Z,10.90
2019-04-06T18:51:45.467Z,10.13
2019-04-06T18:54:17.738Z,11.08
2019-04-06T18:56:49.558Z,10.53
2019-04-06T18:59:23.184Z,10.68
2019-04-06T19:01:55.166Z,10.50
2019-04-06T19:04:29.355Z,10.38
2019-04-06T19:07:00.658Z,10.80
2019-04-06T19:09:32.827Z,10.82
2019-04-06T19:12:05.295Z,10.35
2019-04-06T19:14:37.237Z,10.40
2019-04-06T19:17:09.088Z,11.20
2019-04-06T19:19:41.027Z,10.28
2019-04-06T19:22:11.975Z,10.03
2019-04-06T19:24:42.831Z,10.82
2019-04-06T19:27:13.717Z,10.13
2019-04-06T19:29:44.536Z,10.18
2019-04-06T19:32:15.225Z,10.15
2019-04-06T19:34:46.434Z,10.43
2019-04-06T19:37:17.236Z,10.60
2019-04-06T19:39:47.911Z,10.05
2019-04-06T19:42:18.565Z,10.30
2019-04-06T19:44:49.413Z,10.03
2019-04-06T19:47:20.232Z,9.88
2019-04-06T19:49:50.769Z,9.63
2019-04-06T19:52:21.664Z,10.18
2019-04-06T19:54:52.252Z,10.03
2019-04-06T19:57:22.828Z,9.95
2019-04-06T19:59:53.809Z,9.65
2019-04-06T20:02:24.409Z,10.50
2019-04-06T20:04:55.097Z,10.45
2019-04-06T20:07:25.796Z,10.35
2019-04-06T20:09:56.784Z,10.63
2019-04-06T20:12:27.439Z,10.48
2019-04-06T20:14:58.302Z,10.60
2019-04-06T20:17:28.850Z,10.40
2019-04-06T20:20:00.169Z,9.75
2019-04-06T20:22:30.789Z,10.00
2019-04-06T20:25:02.099Z,9.75
2019-04-06T20:27:32.633Z,9.40
2019-04-06T20:30:04.519Z,9.70
2019-04-06T20:32:35.553Z,9.95
2019-04-06T20:35:06.959Z,9.68
2019-04-06T20:37:37.547Z,9.15
2019-04-06T20:40:08.761Z,10.35
2019-04-06T20:42:39.538Z,10.55
2019-04-06T20:45:10.439Z,9.15
2019-04-06T20:47:41.049Z,9.15
2019-04-06T20:50:11.849Z,9.13
2019-04-06T20:52:42.876Z,10.58
2019-04-06T20:55:13.235Z,9.85
2019-04-06T20:57:43.868Z,9.75
2019-04-06T21:00:14.315Z,8.93
2019-04-06T21:02:45.283Z,9.95
2019-04-06T21:05:16.218Z,10.03
2019-04-06T21:07:47.117Z,9.00
2019-04-06T21:10:17.684Z,9.00
2019-04-06T21:12:48.608Z,8.80
2019-04-06T21:15:21.126Z,8.80
2019-04-06T21:17:51.800Z,9.23
2019-04-06T21:20:23.153Z,9.43
2019-04-06T21:22:53.873Z,9.33
2019-04-06T21:25:24.849Z,8.75
2019-04-06T21:27:55.583Z,8.88
2019-04-06T21:30:26.336Z,9.98
2019-04-06T21:32:57.170Z,10.03
2019-04-06T21:35:29.027Z,10.43
2019-04-06T21:38:00.764Z,11.05
2019-04-06T21:40:31.698Z,10.45
2019-04-06T21:43:03.128Z,10.50
2019-04-06T21:45:34.422Z,10.63
2019-04-06T21:48:05.806Z,11.25
2019-04-06T21:50:36.520Z,11.20
2019-04-06T21:53:07.158Z,11.38
2019-04-06T21:55:37.849Z,10.50
2019-04-06T21:58:08.711Z,11.40
2019-04-06T22:00:56.699Z,11.00
2019-04-06T22:03:28.165Z,12.00
2019-04-06T22:05:58.914Z,11.08
2019-04-06T22:08:30.534Z,11.03
2019-04-06T22:11:02.622Z,10.60
2019-04-06T22:13:35.407Z,10.82
2019-04-06T22:16:07.657Z,11.45
2019-04-06T22:18:39.486Z,11.25
2019-04-06T22:21:11.382Z,10.85
2019-04-06T22:23:45.066Z,10.30
2019-04-06T22:26:17.153Z,11.53
2019-04-06T22:28:49.197Z,11.18
2019-04-06T22:31:21.301Z,11.08
2019-04-06T22:33:53.481Z,10.93
2019-04-06T22:36:26.720Z,11.50
2019-04-06T22:39:00.624Z,10.43
2019-04-06T22:41:33.322Z,11.63
2019-04-06T22:44:05.832Z,10.93
2019-04-06T22:46:37.325Z,11.63
2019-04-06T22:49:09.360Z,11.00
2019-04-06T22:51:40.622Z,10.88
2019-04-06T22:54:11.735Z,12.43
2019-04-06T22:56:45.336Z,11.83
2019-04-06T22:59:16.648Z,11.78
2019-04-06T23:01:48.296Z,10.20
2019-04-06T23:04:50.311Z,11.63
2019-04-06T23:07:21.657Z,12.10
2019-04-06T23:09:54.144Z,12.00
2019-04-06T23:12:24.844Z,12.30
2019-04-06T23:14:56.477Z,12.35
2019-04-06T23:17:28.195Z,10.98
2019-04-06T23:20:01.204Z,12.85
2019-04-06T23:22:33.390Z,11.57
2019-04-06T23:25:04.697Z,12.60
2019-04-06T23:27:35.489Z,12.60
2019-04-06T23:30:06.715Z,12.82
2019-04-06T23:32:37.451Z,12.30
2019-04-06T23:35:08.300Z,12.13
2019-04-06T23:37:39.215Z,12.58
2019-04-06T23:40:10.044Z,12.60
2019-04-06T23:42:40.691Z,12.45
2019-04-06T23:45:11.552Z,12.53
2019-04-06T23:47:42.059Z,13.32
2019-04-06T23:50:13.268Z,13.05
2019-04-06T23:52:44.395Z,13.15
2019-04-06T23:55:16.262Z,12.43
2019-04-06T23:57:46.924Z,12.63
